KMYF/MYF METAR and TAF weather

Enter ICAO airport designator
Station Type Date Time Source
KMYF METAR 2019/02/16 07:14 UTC NOAA

KMYF 160714Z AUTO 28010KT 10SM SCT022 BKN031 BKN050 12/09 A3011 RMK AO2 T01220094


Station Type Date Time Source
KMYF Decoded METAR 2019/02/16 07:14 UTC NOAA

SAN DIEGO MONTGOMERY FIELD, CA, United States (KMYF) 32-49N 117-08W 136M
Feb 16, 2019 - 02:14 AM EST / 2019.02.16 0714 UTC
Wind: from the W (280 degrees) at 12 MPH (10 KT):0
Visibility: 10 mile(s):0
Sky conditions: mostly cloudy
Temperature: 54.0 F (12.2 C)
Dew Point: 48.9 F (9.4 C)
Relative Humidity: 82%
Pressure (altimeter): 30.11 in. Hg (1019 hPa)
ob: KMYF 160714Z AUTO 28010KT 10SM SCT022 BKN031 BKN050 12/09 A3011 RMK AO2 T01220094
cycle: 7

Station Type Date Time Source
KMYF TAF UTC NOAA

Error!


Example: see airport list